Time;durP1;ratioP1;P1;durP2;ratioP2;P2;SDS_P1;SDS_P2;PMS_P1;PMS_P2;Temp;Humidity;BMP_temperature;BMP_pressure;BME280_temperature;BME280_humidity;BME280_pressure;Samples;Min_cycle;Max_cycle;Signal;HPM_P1;HPM_P2
2022/03/29 00:02:14;;;;;;;12.80;7.95;;;7.30;99.90;;;;;;5095600;28;20024;-63
2022/03/29 00:04:40;;;;;;;15.38;7.57;;;7.30;99.90;;;;;;5095529;28;20051;-63
2022/03/29 00:07:06;;;;;;;15.38;7.93;;;7.30;99.90;;;;;;5096695;28;20040;-63
2022/03/29 00:09:31;;;;;;;12.05;7.32;;;7.30;99.90;;;;;;5096615;28;20024;-63
2022/03/29 00:11:57;;;;;;;17.23;8.57;;;7.20;99.90;;;;;;5096532;28;20479;-63
2022/03/29 00:14:22;;;;;;;15.05;8.35;;;7.20;99.90;;;;;;5096683;28;20573;-63
2022/03/29 00:16:48;;;;;;;14.43;8.98;;;7.10;99.90;;;;;;5096644;28;20028;-63
2022/03/29 00:19:14;;;;;;;18.17;7.93;;;7.20;99.90;;;;;;5096971;28;20360;-63
2022/03/29 00:21:39;;;;;;;17.33;9.02;;;7.10;99.90;;;;;;5096447;28;20028;-63
2022/03/29 00:24:05;;;;;;;15.18;8.48;;;7.10;99.90;;;;;;5095122;28;20052;-63
2022/03/29 00:26:31;;;;;;;13.27;7.35;;;7.10;99.90;;;;;;5096298;28;20070;-63
2022/03/29 00:28:57;;;;;;;14.23;8.15;;;7.10;99.90;;;;;;5095979;28;20028;-63
2022/03/29 00:31:22;;;;;;;14.27;7.13;;;7.00;99.90;;;;;;5095921;28;20031;-63
2022/03/29 00:33:49;;;;;;;14.40;7.20;;;6.90;99.90;;;;;;5095840;28;20024;-63
2022/03/29 00:36:15;;;;;;;14.68;7.50;;;6.90;99.90;;;;;;5096124;28;20058;-63
2022/03/29 00:38:42;;;;;;;17.20;7.03;;;6.90;99.90;;;;;;5096091;28;20020;-63
2022/03/29 00:41:08;;;;;;;17.80;7.57;;;6.90;99.90;;;;;;5095727;28;20035;-63
2022/03/29 00:43:35;;;;;;;15.43;7.63;;;6.90;99.90;;;;;;5095980;28;20028;-63
2022/03/29 00:46:01;;;;;;;15.55;7.00;;;6.80;99.90;;;;;;5096358;28;20147;-63
2022/03/29 00:48:27;;;;;;;12.13;6.82;;;6.80;99.90;;;;;;5095872;28;20027;-63
2022/03/29 00:50:54;;;;;;;18.08;7.00;;;6.80;99.90;;;;;;5094820;28;20028;-63
2022/03/29 00:53:22;;;;;;;17.00;7.38;;;6.80;99.90;;;;;;5095681;28;20078;-63
2022/03/29 00:55:48;;;;;;;18.63;7.90;;;6.70;99.90;;;;;;5095666;28;20111;-63
2022/03/29 00:58:15;;;;;;;17.48;8.13;;;6.70;99.90;;;;;;5094441;28;20403;-63
2022/03/29 01:00:41;;;;;;;18.73;8.07;;;6.70;99.90;;;;;;5095768;28;20444;-63
2022/03/29 01:03:08;;;;;;;14.10;7.65;;;6.70;99.90;;;;;;5093995;28;20052;-63
2022/03/29 01:05:34;;;;;;;11.43;6.43;;;6.60;99.90;;;;;;5093594;28;20036;-63
2022/03/29 01:08:00;;;;;;;12.90;6.63;;;6.60;99.90;;;;;;5095391;28;20099;-65
2022/03/29 01:10:27;;;;;;;12.57;7.43;;;6.60;99.90;;;;;;5095454;28;20066;-63
2022/03/29 01:12:54;;;;;;;15.13;7.72;;;6.60;99.90;;;;;;5095283;28;20439;-63
2022/03/29 01:15:31;;;;;;;14.02;7.13;;;6.50;99.90;;;;;;5093686;28;20044;-63
2022/03/29 01:17:57;;;;;;;14.27;7.10;;;6.50;99.90;;;;;;5093969;28;20476;-63
2022/03/29 01:20:27;;;;;;;12.38;7.45;;;6.50;99.90;;;;;;5094925;28;20492;-63
2022/03/29 01:22:55;;;;;;;13.02;7.25;;;6.50;99.90;;;;;;5094935;28;20426;-63
2022/03/29 01:25:24;;;;;;;14.70;7.68;;;6.40;99.90;;;;;;5095132;28;20028;-64
2022/03/29 01:27:51;;;;;;;13.30;7.57;;;6.40;99.90;;;;;;5095114;28;20028;-63
2022/03/29 01:30:18;;;;;;;14.55;7.13;;;6.40;99.90;;;;;;5094741;28;20414;-63
2022/03/29 01:32:46;;;;;;;20.20;7.32;;;6.40;99.90;;;;;;5095039;28;20020;-63
2022/03/29 01:35:12;;;;;;;13.68;7.13;;;6.30;99.90;;;;;;5095259;28;20055;-63
2022/03/29 01:37:39;;;;;;;13.05;7.15;;;6.30;99.90;;;;;;5095127;28;20086;-63
2022/03/29 01:40:13;;;;;;;12.63;6.70;;;6.30;99.90;;;;;;5094556;28;20460;-63
2022/03/29 01:42:42;;;;;;;11.32;6.90;;;6.30;99.90;;;;;;5094938;28;20089;-63
2022/03/29 01:45:09;;;;;;;16.98;7.50;;;6.20;99.90;;;;;;5094748;28;20081;-63
2022/03/29 01:47:35;;;;;;;12.82;7.13;;;6.20;99.90;;;;;;5094463;28;20031;-63
2022/03/29 01:50:01;;;;;;;11.55;7.20;;;6.20;99.90;;;;;;5094689;28;20024;-63
2022/03/29 01:52:26;;;;;;;11.30;6.82;;;6.10;99.90;;;;;;5094661;28;20491;-63
2022/03/29 01:54:52;;;;;;;13.88;7.03;;;6.10;99.90;;;;;;5094681;28;20032;-63
2022/03/29 01:57:18;;;;;;;16.75;7.68;;;6.10;99.90;;;;;;5094613;28;20035;-63
2022/03/29 02:02:27;;;;;;;20.45;8.20;;;6.00;99.90;;;;;;5094692;28;20077;-63
2022/03/29 02:04:53;;;;;;;16.13;7.72;;;5.90;99.90;;;;;;5094440;28;20110;-63
2022/03/29 02:07:19;;;;;;;11.52;6.72;;;5.80;99.90;;;;;;5094819;28;20032;-63
2022/03/29 02:09:45;;;;;;;13.40;7.55;;;5.80;99.90;;;;;;5094058;28;20438;-63
2022/03/29 02:12:12;;;;;;;14.82;6.82;;;5.70;99.90;;;;;;5094274;28;20050;-63
2022/03/29 02:14:38;;;;;;;14.68;8.13;;;5.60;99.90;;;;;;5092528;28;20054;-63
2022/03/29 02:17:05;;;;;;;11.68;7.28;;;5.50;99.90;;;;;;5109104;28;20032;-63
2022/03/29 02:19:31;;;;;;;14.30;7.05;;;5.50;99.90;;;;;;5093012;28;20379;-63
2022/03/29 02:21:56;;;;;;;15.98;7.55;;;5.40;99.90;;;;;;5092612;28;20395;-63
2022/03/29 02:24:22;;;;;;;15.85;7.65;;;5.40;99.90;;;;;;5094131;28;20073;-63
2022/03/29 02:26:47;;;;;;;14.70;8.02;;;5.40;99.90;;;;;;5093840;28;20037;-63
2022/03/29 02:29:13;;;;;;;13.77;7.43;;;5.40;99.90;;;;;;5092797;28;20426;-63
2022/03/29 02:31:39;;;;;;;15.30;7.72;;;5.30;99.90;;;;;;5092759;28;20028;-63
2022/03/29 02:34:04;;;;;;;19.13;8.02;;;5.30;99.90;;;;;;5094274;28;20032;-66
2022/03/29 02:36:30;;;;;;;12.40;6.70;;;5.30;99.90;;;;;;5093927;28;20425;-63
2022/03/29 02:38:56;;;;;;;16.05;6.57;;;5.20;99.90;;;;;;5093961;28;20028;-63
2022/03/29 02:41:21;;;;;;;12.60;7.40;;;5.20;99.90;;;;;;5093946;28;20028;-63
2022/03/29 02:43:47;;;;;;;13.00;7.57;;;5.20;99.90;;;;;;5094966;28;20425;-63
2022/03/29 02:46:13;;;;;;;20.63;7.40;;;5.30;99.90;;;;;;5094485;28;20024;-64
2022/03/29 02:48:39;;;;;;;17.38;7.85;;;5.20;99.90;;;;;;5093456;28;20027;-64
2022/03/29 02:51:05;;;;;;;12.43;7.53;;;5.30;99.90;;;;;;5094144;28;20020;-64
2022/03/29 02:53:30;;;;;;;17.23;7.28;;;5.30;99.90;;;;;;5093767;28;20052;-63
2022/03/29 02:55:56;;;;;;;17.20;7.30;;;5.20;99.90;;;;;;5093697;28;20027;-63
2022/03/29 02:58:22;;;;;;;20.38;8.07;;;5.30;99.90;;;;;;5093790;28;20101;-63
2022/03/29 03:00:48;;;;;;;16.92;8.55;;;5.30;99.90;;;;;;5093447;28;20024;-63
2022/03/29 03:03:14;;;;;;;22.30;8.18;;;5.30;99.90;;;;;;5092476;28;20046;-63
2022/03/29 03:05:40;;;;;;;13.20;7.63;;;5.30;99.90;;;;;;5093728;28;20024;-63
2022/03/29 03:08:05;;;;;;;15.48;7.40;;;5.40;99.90;;;;;;5093986;28;20039;-63
2022/03/29 03:10:31;;;;;;;13.70;7.85;;;5.40;99.90;;;;;;5093679;28;20141;-63
2022/03/29 03:12:57;;;;;;;16.02;7.82;;;5.40;99.90;;;;;;5093691;28;20028;-63
2022/03/29 03:15:24;;;;;;;15.95;7.30;;;5.40;99.90;;;;;;5093592;28;20076;-63
2022/03/29 03:17:52;;;;;;;14.32;7.25;;;5.50;99.90;;;;;;5093630;28;20360;-63
2022/03/29 03:20:18;;;;;;;25.40;8.65;;;5.50;99.90;;;;;;5092306;28;20032;-63
2022/03/29 03:22:44;;;;;;;17.88;8.75;;;5.40;99.90;;;;;;5093563;28;20444;-63
2022/03/29 03:25:10;;;;;;;16.50;7.18;;;5.40;99.90;;;;;;5093251;28;20483;-63
2022/03/29 03:27:36;;;;;;;13.75;7.40;;;5.40;99.90;;;;;;5094246;28;20039;-63
2022/03/29 03:30:06;;;;;;;20.27;7.53;;;5.40;99.90;;;;;;5095812;28;20028;-63
2022/03/29 03:32:32;;;;;;;14.40;7.75;;;5.50;99.90;;;;;;5096083;28;20027;-63
2022/03/29 03:34:58;;;;;;;14.95;7.80;;;5.40;99.90;;;;;;5097440;28;20099;-63
2022/03/29 03:37:24;;;;;;;16.60;8.07;;;5.40;99.90;;;;;;5095871;28;20024;-63
2022/03/29 03:39:49;;;;;;;13.95;8.18;;;5.40;99.90;;;;;;5095639;28;20030;-63
2022/03/29 03:42:15;;;;;;;17.98;7.63;;;5.40;99.90;;;;;;5096103;28;20028;-63
2022/03/29 03:44:41;;;;;;;12.95;8.02;;;5.40;99.90;;;;;;5097360;28;20024;-63
2022/03/29 03:47:10;;;;;;;20.23;8.88;;;5.40;99.90;;;;;;5096617;28;20031;-63
2022/03/29 03:49:36;;;;;;;17.17;7.82;;;5.30;99.90;;;;;;5097026;28;20024;-63
2022/03/29 03:52:03;;;;;;;20.67;8.63;;;5.30;99.90;;;;;;5096983;28;20031;-63
2022/03/29 03:54:29;;;;;;;19.30;7.80;;;5.20;99.90;;;;;;5096930;28;20040;-63
2022/03/29 03:56:54;;;;;;;15.20;8.18;;;5.20;99.90;;;;;;5096519;28;20024;-63
2022/03/29 03:59:21;;;;;;;16.52;8.40;;;5.20;99.90;;;;;;5096998;28;20024;-63
2022/03/29 04:02:05;;;;;;;19.60;8.85;;;5.20;99.90;;;;;;5096743;28;20032;-63
2022/03/29 04:04:30;;;;;;;25.67;7.80;;;5.20;99.90;;;;;;5096492;28;20472;-63
2022/03/29 04:07:15;;;;;;;20.10;8.20;;;5.20;99.90;;;;;;5095690;28;20053;-62
2022/03/29 04:09:41;;;;;;;16.50;8.50;;;5.10;99.90;;;;;;5096583;28;20056;-62
2022/03/29 04:15:28;;;;;;;15.95;8.30;;;5.70;99.90;;;;;;5095917;28;20132;-63
2022/03/29 04:17:54;;;;;;;20.05;7.93;;;5.10;99.90;;;;;;5095148;28;20110;-63
2022/03/29 04:20:20;;;;;;;22.77;8.48;;;5.10;99.90;;;;;;5096450;28;20491;-63
2022/03/29 04:22:46;;;;;;;19.70;8.38;;;5.10;99.90;;;;;;5096387;28;20349;-63
2022/03/29 04:25:11;;;;;;;17.52;8.73;;;5.00;99.90;;;;;;5096631;28;20089;-63
2022/03/29 04:27:37;;;;;;;17.40;10.25;;;5.00;99.90;;;;;;5096291;28;20453;-63
2022/03/29 04:30:04;;;;;;;15.45;8.70;;;5.00;99.90;;;;;;5094979;28;20510;-63
2022/03/29 04:32:29;;;;;;;19.10;8.77;;;5.00;99.90;;;;;;5094872;28;20024;-63
2022/03/29 04:34:56;;;;;;;14.07;7.82;;;5.00;99.90;;;;;;5095878;28;20032;-63
2022/03/29 04:37:24;;;;;;;19.95;9.27;;;5.00;99.90;;;;;;5095878;28;20438;-63
2022/03/29 04:39:50;;;;;;;15.50;8.10;;;5.10;99.90;;;;;;5093745;28;20122;-62
2022/03/29 04:42:18;;;;;;;16.48;8.45;;;5.20;99.90;;;;;;5094805;28;20063;-63
2022/03/29 04:44:43;;;;;;;22.45;9.40;;;5.00;99.90;;;;;;5095989;28;20433;-63
2022/03/29 04:47:09;;;;;;;16.02;8.18;;;5.00;99.90;;;;;;5094756;28;20051;-63
2022/03/29 04:49:35;;;;;;;19.33;8.40;;;5.00;99.90;;;;;;5095550;28;20027;-63
2022/03/29 04:52:01;;;;;;;17.83;9.02;;;5.10;99.90;;;;;;5095845;28;20016;-64
2022/03/29 04:54:27;;;;;;;19.15;8.90;;;5.10;99.90;;;;;;5094491;28;20024;-63
2022/03/29 04:56:53;;;;;;;18.42;9.25;;;5.10;99.90;;;;;;5094386;28;20038;-63
2022/03/29 04:59:19;;;;;;;21.63;8.60;;;5.20;99.90;;;;;;5095699;28;20469;-63
2022/03/29 05:01:45;;;;;;;15.73;8.23;;;5.20;99.90;;;;;;5094352;28;20031;-63
2022/03/29 05:04:10;;;;;;;22.00;9.10;;;5.20;99.90;;;;;;5095587;28;20039;-63
2022/03/29 05:06:36;;;;;;;16.55;8.20;;;5.20;99.90;;;;;;5094211;28;20108;-63
2022/03/29 05:09:03;;;;;;;22.77;8.88;;;5.30;99.90;;;;;;5096035;28;20020;-64
2022/03/29 05:11:29;;;;;;;22.63;8.23;;;5.30;99.90;;;;;;5095162;28;20379;-64
2022/03/29 05:13:55;;;;;;;22.85;9.30;;;5.40;99.90;;;;;;5094118;28;20039;-63
2022/03/29 05:16:20;;;;;;;16.77;8.02;;;5.40;99.90;;;;;;5095848;28;20048;-64
2022/03/29 05:18:46;;;;;;;20.08;9.57;;;5.50;99.90;;;;;;5095589;28;20024;-64
2022/03/29 05:21:12;;;;;;;25.25;9.25;;;5.50;99.90;;;;;;5093695;28;20464;-63
2022/03/29 05:23:38;;;;;;;17.20;8.48;;;5.60;99.90;;;;;;5094968;28;20028;-63
2022/03/29 05:26:04;;;;;;;19.05;9.05;;;5.70;99.90;;;;;;5095354;28;20506;-63
2022/03/29 05:28:29;;;;;;;20.35;9.50;;;5.80;99.90;;;;;;5095685;28;20414;-67
2022/03/29 05:30:55;;;;;;;20.83;9.65;;;5.80;99.90;;;;;;5095100;28;20371;-63
2022/03/29 05:33:21;;;;;;;21.85;9.05;;;5.90;99.90;;;;;;5095017;28;20530;-63
2022/03/29 05:35:46;;;;;;;18.85;8.95;;;6.00;99.90;;;;;;5094688;28;20060;-63
2022/03/29 05:38:12;;;;;;;25.17;9.25;;;6.10;99.90;;;;;;5094862;28;20028;-63
2022/03/29 05:40:38;;;;;;;18.05;9.75;;;6.20;99.90;;;;;;5093533;28;20031;-63
2022/03/29 05:43:10;;;;;;;23.20;9.77;;;6.20;99.90;;;;;;5093607;28;20024;-64
2022/03/29 05:45:37;;;;;;;19.20;9.02;;;6.30;99.90;;;;;;5095022;28;20020;-64
2022/03/29 05:50:46;;;;;;;18.45;8.90;;;6.50;99.90;;;;;;5094591;28;20039;-64
2022/03/29 05:53:12;;;;;;;22.55;9.15;;;6.60;99.90;;;;;;5093917;28;20024;-63
2022/03/29 05:55:38;;;;;;;21.48;8.77;;;6.70;99.90;;;;;;5094465;28;20105;-63
2022/03/29 05:58:03;;;;;;;17.83;9.27;;;6.90;99.90;;;;;;5094524;28;20036;-63
2022/03/29 06:00:31;;;;;;;17.50;8.60;;;6.90;99.90;;;;;;5094476;28;20111;-64
2022/03/29 06:02:57;;;;;;;18.90;9.43;;;7.10;99.90;;;;;;5093534;28;20490;-64
2022/03/29 06:05:22;;;;;;;16.30;8.70;;;7.20;99.90;;;;;;5093258;28;20024;-64
2022/03/29 06:07:50;;;;;;;17.15;8.40;;;7.40;99.90;;;;;;5094294;28;20036;-63
2022/03/29 06:10:15;;;;;;;21.05;8.48;;;7.50;99.90;;;;;;5094108;28;20115;-64
2022/03/29 06:12:44;;;;;;;17.52;9.43;;;7.70;99.90;;;;;;5094477;28;20468;-64
2022/03/29 06:15:10;;;;;;;20.58;9.50;;;7.80;99.90;;;;;;5093409;28;20087;-63
2022/03/29 06:17:36;;;;;;;16.38;9.32;;;8.00;99.90;;;;;;5094363;28;20465;-63
2022/03/29 06:22:49;;;;;;;23.65;8.57;;;8.50;99.90;;;;;;5094406;28;20448;-63
2022/03/29 06:25:14;;;;;;;16.85;9.25;;;8.70;99.90;;;;;;5093267;28;20024;-64
2022/03/29 06:27:40;;;;;;;16.48;8.35;;;8.90;99.90;;;;;;5094956;28;20081;-63
2022/03/29 06:30:08;;;;;;;18.25;9.00;;;9.20;99.90;;;;;;5094392;28;20020;-64
2022/03/29 06:32:34;;;;;;;19.10;9.98;;;9.50;99.90;;;;;;5092710;28;20035;-64
2022/03/29 06:35:00;;;;;;;21.98;10.15;;;10.00;99.90;;;;;;5092812;28;20028;-64
2022/03/29 06:37:26;;;;;;;21.20;10.07;;;10.70;99.90;;;;;;5093947;28;20076;-64
2022/03/29 06:39:52;;;;;;;23.60;11.32;;;11.40;99.90;;;;;;5092790;28;20123;-63
2022/03/29 06:42:18;;;;;;;21.30;10.65;;;12.10;98.50;;;;;;5094014;28;20056;-63
2022/03/29 06:44:46;;;;;;;23.52;11.27;;;12.60;96.00;;;;;;5094034;28;20027;-63
2022/03/29 06:47:13;;;;;;;17.97;9.80;;;13.10;94.30;;;;;;5094124;28;20032;-64
2022/03/29 06:49:39;;;;;;;19.45;10.10;;;13.50;92.20;;;;;;5092698;28;20660;-64
2022/03/29 06:55:28;;;;;;;28.27;11.45;;;14.10;84.40;;;;;;5093688;28;20526;-64
2022/03/29 06:57:54;;;;;;;20.70;10.52;;;14.40;78.40;;;;;;5093808;28;20035;-64
2022/03/29 07:00:39;;;;;;;21.73;10.57;;;14.60;76.80;;;;;;5094168;28;20077;-64
2022/03/29 07:03:05;;;;;;;18.35;10.15;;;14.80;70.70;;;;;;5095414;28;20050;-63
2022/03/29 07:05:31;;;;;;;22.13;10.35;;;15.10;69.90;;;;;;5096992;28;20024;-73
2022/03/29 07:08:18;;;;;;;18.50;10.60;;;15.30;66.30;;;;;;5099956;28;20028;-65
2022/03/29 07:13:28;;;;;;;22.75;10.23;;;15.60;63.80;;;;;;5099869;28;20082;-64
2022/03/29 07:15:54;;;;;;;21.17;10.82;;;15.70;61.70;;;;;;5099615;28;20064;-67
2022/03/29 07:18:20;;;;;;;16.60;9.35;;;15.80;61.60;;;;;;5097177;28;20040;-64
2022/03/29 07:21:04;;;;;;;18.38;10.30;;;15.90;60.90;;;;;;5098240;28;20028;-63
2022/03/29 07:23:30;;;;;;;20.95;10.70;;;16.10;60.00;;;;;;5096255;28;20502;-63
2022/03/29 07:25:56;;;;;;;20.80;11.18;;;16.20;58.40;;;;;;5096296;28;20056;-63
2022/03/29 07:28:23;;;;;;;17.92;10.50;;;16.20;57.70;;;;;;5096979;28;20302;-64
2022/03/29 07:30:49;;;;;;;21.17;10.10;;;16.40;56.80;;;;;;5096028;28;20456;-64
2022/03/29 07:33:18;;;;;;;16.52;9.18;;;16.50;55.70;;;;;;5096352;28;20024;-64
2022/03/29 07:35:45;;;;;;;16.17;9.43;;;16.70;53.60;;;;;;5096100;28;20372;-64
2022/03/29 07:38:12;;;;;;;17.30;9.90;;;16.70;54.30;;;;;;5097042;28;20475;-64
2022/03/29 07:40:38;;;;;;;17.65;9.93;;;16.90;54.10;;;;;;5097302;28;20452;-63
2022/03/29 07:46:26;;;;;;;19.42;11.45;;;17.00;52.60;;;;;;5096684;28;20023;-64
2022/03/29 07:48:52;;;;;;;21.60;11.02;;;17.00;52.40;;;;;;5096195;28;20028;-64
2022/03/29 07:51:18;;;;;;;23.27;11.40;;;17.30;51.80;;;;;;5096569;28;20020;-64
2022/03/29 07:53:44;;;;;;;19.45;10.02;;;17.70;50.00;;;;;;5095529;28;20365;-64
2022/03/29 07:56:10;;;;;;;20.60;10.98;;;17.60;50.00;;;;;;5095494;28;20023;-63
2022/03/29 07:58:36;;;;;;;21.40;9.73;;;17.50;50.50;;;;;;5095424;28;20047;-64
2022/03/29 08:01:02;;;;;;;19.38;10.02;;;17.60;49.60;;;;;;5095465;28;20024;-65
2022/03/29 08:03:32;;;;;;;19.30;10.82;;;17.90;49.30;;;;;;5096410;28;20020;-65
2022/03/29 08:05:58;;;;;;;18.55;11.20;;;18.30;48.10;;;;;;5096880;28;20030;-64
2022/03/29 08:08:24;;;;;;;16.92;10.15;;;18.40;46.70;;;;;;5095343;28;20020;-64
2022/03/29 08:10:50;;;;;;;24.45;11.38;;;18.20;46.80;;;;;;5095700;28;20031;-64
2022/03/29 08:13:17;;;;;;;21.33;11.15;;;18.30;46.50;;;;;;5096639;28;20024;-64
2022/03/29 08:15:46;;;;;;;17.20;10.25;;;18.10;46.00;;;;;;5096676;28;20040;-64
2022/03/29 08:18:11;;;;;;;;;;;17.90;45.70;;;;;;5096836;28;20032;-64
2022/03/29 08:20:38;;;;;;;17.58;10.18;;;17.90;46.50;;;;;;5096587;28;19911;-64
2022/03/29 08:23:06;;;;;;;20.17;10.50;;;18.00;46.20;;;;;;5094891;28;20032;-64
2022/03/29 08:25:33;;;;;;;19.33;9.95;;;18.00;45.90;;;;;;5096287;28;20035;-64
2022/03/29 08:28:00;;;;;;;20.73;11.07;;;18.50;46.50;;;;;;5096189;28;20047;-64
2022/03/29 08:30:27;;;;;;;20.27;11.27;;;18.90;44.90;;;;;;5096639;28;20115;-64
2022/03/29 08:32:53;;;;;;;18.30;10.30;;;19.30;44.50;;;;;;5094854;28;20039;-64
2022/03/29 08:35:19;;;;;;;20.48;10.55;;;19.60;43.50;;;;;;5095767;28;20474;-64
2022/03/29 08:37:46;;;;;;;16.98;10.43;;;19.70;42.60;;;;;;5094619;28;20064;-65
2022/03/29 08:40:15;;;;;;;18.20;10.80;;;19.90;42.10;;;;;;5096065;28;20047;-65
2022/03/29 08:42:46;;;;;;;16.17;10.48;;;20.00;42.10;;;;;;5094635;28;20023;-64
2022/03/29 08:45:13;;;;;;;18.88;9.93;;;20.20;41.90;;;;;;5095965;28;20043;-64
2022/03/29 08:47:41;;;;;;;17.27;10.18;;;20.40;41.10;;;;;;5095877;28;20349;-64
2022/03/29 08:50:08;;;;;;;14.23;9.60;;;20.20;41.30;;;;;;5096051;28;20038;-64
2022/03/29 08:52:34;;;;;;;21.15;10.57;;;20.20;41.30;;;;;;5095360;28;20036;-65
2022/03/29 08:55:03;;;;;;;17.42;9.90;;;20.30;41.10;;;;;;5095637;28;20020;-65
2022/03/29 08:57:31;;;;;;;17.27;10.52;;;20.40;40.60;;;;;;5095722;28;20036;-64
2022/03/29 08:59:57;;;;;;;18.38;11.23;;;20.60;41.00;;;;;;5095435;28;20035;-64
2022/03/29 09:02:23;;;;;;;18.60;10.05;;;20.80;39.40;;;;;;5095458;28;20020;-65
2022/03/29 09:05:08;;;;;;;16.80;9.60;;;20.90;39.90;;;;;;5095419;28;20028;-64
2022/03/29 09:07:54;;;;;;;15.25;9.07;;;21.10;39.50;;;;;;5094300;28;20075;-64
2022/03/29 09:10:23;;;;;;;14.15;9.68;;;21.10;39.00;;;;;;5095315;28;20507;-64
2022/03/29 09:12:49;;;;;;;15.68;9.45;;;21.20;39.10;;;;;;5094681;28;20540;-63
2022/03/29 09:15:15;;;;;;;19.35;9.32;;;21.00;39.10;;;;;;5093447;28;20093;-64
2022/03/29 09:17:46;;;;;;;16.70;8.80;;;21.20;38.80;;;;;;5093744;28;20036;-64
2022/03/29 09:20:16;;;;;;;15.85;9.63;;;21.60;38.50;;;;;;5095480;28;20020;-64
2022/03/29 09:22:42;;;;;;;17.83;9.65;;;21.60;39.10;;;;;;5094987;28;20028;-64
2022/03/29 09:25:15;;;;;;;17.13;11.18;;;21.80;38.70;;;;;;5093785;28;20089;-64
2022/03/29 09:27:49;;;;;;;18.15;9.43;;;22.00;37.60;;;;;;5095681;28;20051;-64
2022/03/29 09:30:15;;;;;;;15.48;9.43;;;22.00;37.70;;;;;;5095374;28;20055;-64
2022/03/29 09:33:04;;;;;;;18.38;9.18;;;22.10;38.10;;;;;;5094973;28;20024;-64
2022/03/29 09:35:34;;;;;;;15.15;9.38;;;22.80;37.10;;;;;;5095238;28;20024;-64
2022/03/29 09:38:01;;;;;;;15.68;10.27;;;23.20;36.10;;;;;;5094736;28;20032;-64
2022/03/29 09:40:41;;;;;;;14.45;9.02;;;23.50;35.30;;;;;;5093713;28;20441;-64
2022/03/29 09:46:53;;;;;;;13.43;9.15;;;23.60;35.00;;;;;;5094719;28;20093;-64
2022/03/29 09:49:20;;;;;;;21.55;9.68;;;23.50;35.20;;;;;;5094273;28;20035;-64
2022/03/29 09:51:46;;;;;;;13.60;8.93;;;23.60;34.70;;;;;;5094130;28;20082;-64
2022/03/29 09:54:12;;;;;;;12.18;8.63;;;23.60;34.30;;;;;;5093848;28;20028;-65
2022/03/29 09:56:38;;;;;;;18.23;9.30;;;23.70;34.40;;;;;;5094480;28;20093;-64
2022/03/29 09:59:14;;;;;;;12.93;9.20;;;24.00;34.30;;;;;;5094540;28;20031;-62
2022/03/29 10:01:51;;;;;;;12.85;8.07;;;24.40;33.00;;;;;;5094404;28;20078;-62
2022/03/29 10:04:18;;;;;;;13.50;8.43;;;24.60;32.80;;;;;;5094379;28;20086;-62
2022/03/29 10:06:46;;;;;;;9.25;7.22;;;24.90;31.20;;;;;;5094351;28;20054;-64
2022/03/29 10:09:27;;;;;;;15.30;7.83;;;24.40;31.20;;;;;;5094440;28;20024;-67
2022/03/29 10:12:03;;;;;;;12.43;7.72;;;24.40;31.70;;;;;;5094754;28;20254;-61
2022/03/29 10:14:31;;;;;;;11.35;7.90;;;25.00;30.10;;;;;;5093117;28;20027;-62
2022/03/29 10:16:58;;;;;;;12.37;8.47;;;25.30;30.20;;;;;;5094570;28;20067;-61
2022/03/29 10:19:24;;;;;;;14.18;8.45;;;25.10;30.50;;;;;;5094173;28;20028;-62
2022/03/29 10:21:53;;;;;;;15.02;7.45;;;24.80;30.70;;;;;;5093961;28;20460;-61
2022/03/29 10:24:19;;;;;;;9.70;7.47;;;24.80;30.70;;;;;;5094123;28;20020;-61
2022/03/29 10:26:49;;;;;;;12.07;8.18;;;24.70;30.70;;;;;;5094125;28;20031;-62
2022/03/29 10:29:15;;;;;;;14.45;9.27;;;24.80;30.10;;;;;;5092838;28;20057;-62
2022/03/29 10:31:54;;;;;;;12.73;8.88;;;24.60;30.60;;;;;;5093810;28;20479;-64
2022/03/29 10:34:21;;;;;;;14.50;9.50;;;24.20;30.70;;;;;;5092421;28;20028;-64
2022/03/29 10:37:09;;;;;;;14.38;9.18;;;23.80;30.90;;;;;;5091935;28;20032;-64
2022/03/29 10:39:44;;;;;;;13.52;8.23;;;23.80;31.20;;;;;;5093880;28;20056;-64
2022/03/29 10:42:22;;;;;;;16.45;8.57;;;24.60;31.00;;;;;;5092696;28;20119;-64
2022/03/29 10:45:04;;;;;;;16.23;9.32;;;25.30;30.00;;;;;;5092756;28;20101;-64
2022/03/29 10:47:31;;;;;;;13.38;8.40;;;25.70;29.80;;;;;;5093597;28;20035;-62
2022/03/29 10:49:57;;;;;;;12.80;8.48;;;26.00;29.60;;;;;;5092413;28;20071;-61
2022/03/29 10:52:22;;;;;;;14.77;9.50;;;26.00;29.50;;;;;;5092684;28;20031;-62
2022/03/29 10:54:50;;;;;;;13.15;9.18;;;25.90;28.90;;;;;;5093778;28;20035;-65
2022/03/29 10:57:24;;;;;;;13.80;8.25;;;24.60;29.30;;;;;;5093739;28;20036;-64
2022/03/29 10:59:58;;;;;;;12.70;8.68;;;24.10;29.70;;;;;;5093779;28;20436;-64
2022/03/29 11:02:24;;;;;;;14.68;8.20;;;23.90;30.00;;;;;;5093944;28;20020;-65
2022/03/29 11:05:06;;;;;;;12.32;8.32;;;24.00;30.10;;;;;;5094044;28;20102;-65
2022/03/29 11:07:41;;;;;;;13.48;8.68;;;24.30;29.80;;;;;;5092706;28;20028;-64
2022/03/29 11:10:19;;;;;;;13.70;8.52;;;24.40;29.90;;;;;;5092406;28;20077;-62
2022/03/29 11:12:49;;;;;;;13.88;9.20;;;25.00;29.50;;;;;;5093837;28;20414;-64
2022/03/29 11:15:38;;;;;;;17.15;9.05;;;25.30;29.10;;;;;;5093520;28;20074;-64
2022/03/29 11:18:30;;;;;;;17.50;10.43;;;25.60;28.90;;;;;;5087809;28;20040;-64
2022/03/29 11:21:02;;;;;;;14.27;8.65;;;24.60;29.50;;;;;;5092513;28;20029;-64
2022/03/29 11:23:34;;;;;;;16.05;8.85;;;24.20;29.50;;;;;;5094020;28;20456;-64
2022/03/29 11:26:10;;;;;;;17.48;10.13;;;24.10;30.10;;;;;;5096153;28;20035;-65
2022/03/29 11:28:37;;;;;;;17.80;10.15;;;24.80;29.90;;;;;;5096245;28;20032;-67
2022/03/29 11:31:03;;;;;;;16.45;9.98;;;25.20;29.70;;;;;;5096845;28;20162;-64
2022/03/29 11:33:34;;;;;;;15.35;9.57;;;25.70;29.10;;;;;;5095031;28;20076;-65
2022/03/29 11:36:05;;;;;;;14.63;10.25;;;25.20;29.40;;;;;;5094392;28;20031;-64
2022/03/29 11:38:36;;;;;;;17.77;10.18;;;25.30;28.80;;;;;;5093527;28;20032;-64
2022/03/29 11:41:05;;;;;;;15.38;10.40;;;25.00;29.20;;;;;;5091989;28;20035;-64
2022/03/29 11:43:31;;;;;;;;;;;25.20;29.20;;;;;;5093803;28;20028;-64
2022/03/29 11:45:57;;;;;;;15.73;9.90;;;26.50;30.10;;;;;;5092780;28;19919;-64
2022/03/29 11:48:25;;;;;;;13.93;10.10;;;25.20;29.20;;;;;;5093314;28;20024;-64
2022/03/29 11:51:00;;;;;;;14.60;8.57;;;25.80;28.90;;;;;;5095366;28;20030;-64
2022/03/29 11:53:33;;;;;;;12.60;9.43;;;26.30;28.40;;;;;;5095618;28;20028;-64
2022/03/29 11:56:09;;;;;;;12.63;8.73;;;26.30;28.50;;;;;;5096877;28;20028;-64
2022/03/29 11:58:41;;;;;;;17.88;9.70;;;26.40;28.00;;;;;;5095662;28;20036;-65
2022/03/29 12:01:18;;;;;;;18.38;10.82;;;26.10;28.20;;;;;;5096852;28;20024;-65
2022/03/29 12:03:55;;;;;;;13.00;8.68;;;26.30;28.00;;;;;;5096716;28;20050;-57
2022/03/29 12:06:29;;;;;;;15.80;9.82;;;26.00;29.10;;;;;;5096701;28;20476;-57
2022/03/29 12:08:59;;;;;;;13.13;8.82;;;25.90;29.80;;;;;;5097038;28;20035;-57
2022/03/29 12:11:32;;;;;;;12.25;8.80;;;25.90;28.80;;;;;;5096530;28;20024;-64
2022/03/29 12:14:20;;;;;;;14.07;9.30;;;25.90;28.10;;;;;;5095335;28;20042;-65
2022/03/29 12:16:47;;;;;;;12.38;9.13;;;25.50;28.10;;;;;;5096623;28;20044;-65
2022/03/29 12:19:25;;;;;;;17.08;9.80;;;25.50;28.10;;;;;;5095404;28;20077;-65
2022/03/29 12:21:53;;;;;;;15.03;9.47;;;25.60;28.20;;;;;;5095342;28;20028;-65
2022/03/29 12:24:20;;;;;;;14.85;9.20;;;25.60;28.00;;;;;;5111959;28;20073;-65
2022/03/29 12:27:04;;;;;;;12.75;9.18;;;25.20;28.10;;;;;;5096289;28;20127;-65
2022/03/29 12:29:32;;;;;;;12.57;8.93;;;25.70;28.50;;;;;;5096056;28;20057;-65
2022/03/29 12:32:00;;;;;;;12.35;8.55;;;26.00;27.70;;;;;;5094965;28;20035;-66
2022/03/29 12:34:27;;;;;;;;;;;26.20;27.70;;;;;;5095282;28;20472;-65
2022/03/29 12:36:58;;;;;;;14.18;9.73;;;25.80;27.60;;;;;;5096011;28;19912;-65
2022/03/29 12:39:30;;;;;;;15.18;9.50;;;25.40;27.70;;;;;;5096149;28;20028;-65
2022/03/29 12:41:56;;;;;;;14.32;9.13;;;25.30;28.00;;;;;;5094743;28;20528;-65
2022/03/29 12:44:32;;;;;;;11.85;8.88;;;25.40;27.80;;;;;;5096002;28;20119;-65
2022/03/29 12:46:59;;;;;;;14.65;8.70;;;25.60;27.80;;;;;;5094571;28;20516;-65
2022/03/29 12:49:26;;;;;;;14.80;8.52;;;25.90;27.80;;;;;;5095536;28;20027;-65
2022/03/29 12:51:54;;;;;;;11.02;8.23;;;25.90;27.90;;;;;;5095962;28;20028;-65
2022/03/29 12:54:31;;;;;;;13.48;8.13;;;26.20;27.50;;;;;;5094489;28;20020;-65
2022/03/29 12:56:58;;;;;;;13.82;9.73;;;26.20;27.40;;;;;;5095754;28;20047;-63
2022/03/29 12:59:36;;;;;;;12.57;8.68;;;26.30;27.30;;;;;;5094424;28;20024;-63
2022/03/29 13:02:22;;;;;;;15.38;8.82;;;25.80;27.30;;;;;;5094443;28;20028;-63
2022/03/29 13:04:53;;;;;;;19.73;10.57;;;24.80;27.50;;;;;;5095240;28;20052;-64
2022/03/29 13:07:43;;;;;;;16.23;9.68;;;24.60;28.00;;;;;;5095142;28;20024;-63
2022/03/29 13:13:36;;;;;;;17.08;9.80;;;24.60;28.00;;;;;;5095374;28;20023;-64
2022/03/29 13:16:10;;;;;;;14.98;9.27;;;24.00;28.30;;;;;;5094095;28;20052;-65